createdAt,value
2023-03-06T00:00:58.752Z,78.39
2023-03-06T00:03:53.769Z,78.29
2023-03-06T00:06:41.729Z,78.27
2023-03-06T00:09:22.746Z,78.26
2023-03-06T00:12:11.732Z,78.21
2023-03-06T00:14:52.723Z,78.22
2023-03-06T00:17:47.728Z,78.50
2023-03-06T00:20:35.738Z,78.24
2023-03-06T00:23:17.871Z,78.31
2023-03-06T00:25:58.721Z,78.32
2023-03-06T00:28:46.743Z,78.20
2023-03-06T00:31:21.386Z,77.95
2023-03-06T00:34:10.934Z,77.76
2023-03-06T00:36:46.343Z,77.64
2023-03-06T00:39:33.770Z,77.69
2023-03-06T00:42:09.332Z,77.66
2023-03-06T00:44:57.936Z,77.52
2023-03-06T00:47:33.782Z,77.57
2023-03-06T00:50:23.732Z,77.56
2023-03-06T00:53:04.925Z,77.51
2023-03-06T00:55:46.070Z,77.44
2023-03-06T00:58:27.749Z,77.33
2023-03-06T01:01:08.898Z,77.36
2023-03-06T01:03:49.723Z,77.44
2023-03-06T01:06:37.730Z,77.31
2023-03-06T01:09:12.253Z,77.24
2023-03-06T01:12:00.908Z,77.08
2023-03-06T01:14:37.084Z,76.96
2023-03-06T01:17:25.924Z,76.97
2023-03-06T01:20:21.747Z,76.93
2023-03-06T01:23:10.909Z,76.94
2023-03-06T01:25:45.954Z,77.09
2023-03-06T01:28:34.712Z,77.26
2023-03-06T01:31:09.836Z,77.63
2023-03-06T01:33:57.710Z,77.94
2023-03-06T01:36:33.050Z,78.40
2023-03-06T01:39:20.912Z,79.07
2023-03-06T01:42:02.844Z,79.29
2023-03-06T01:45:19.729Z,79.59
2023-03-06T01:48:14.709Z,79.69
2023-03-06T01:51:02.727Z,79.82
2023-03-06T01:53:36.854Z,79.70
2023-03-06T01:56:26.926Z,79.55
2023-03-06T01:59:04.032Z,79.51
2023-03-06T02:01:58.950Z,79.20
2023-03-06T02:04:49.708Z,79.06
2023-03-06T02:07:26.882Z,78.87
2023-03-06T02:10:15.708Z,78.85
2023-03-06T02:12:57.734Z,78.75
2023-03-06T02:15:52.722Z,78.64
2023-03-06T02:18:42.697Z,78.39
2023-03-06T02:21:22.897Z,78.29
2023-03-06T02:24:18.705Z,78.05
2023-03-06T02:27:00.906Z,78.07
2023-03-06T02:29:42.706Z,78.04
2023-03-06T02:32:24.078Z,77.96
2023-03-06T02:35:05.910Z,77.91
2023-03-06T02:37:48.078Z,78.06
2023-03-06T02:40:29.722Z,78.08
2023-03-06T02:43:10.838Z,77.93
2023-03-06T02:45:56.932Z,77.92
2023-03-06T02:48:38.028Z,77.91
2023-03-06T02:51:19.691Z,78.00
2023-03-06T02:54:00.830Z,77.97
2023-03-06T02:56:41.705Z,78.07
2023-03-06T02:59:36.909Z,77.89
2023-03-06T03:02:24.894Z,77.72
2023-03-06T03:05:00.040Z,77.71
2023-03-06T03:07:47.689Z,77.84
2023-03-06T03:10:29.674Z,77.74
2023-03-06T03:13:24.694Z,77.75
2023-03-06T03:16:15.787Z,77.71
2023-03-06T03:18:53.827Z,77.71
2023-03-06T03:21:42.896Z,77.70
2023-03-06T03:24:17.838Z,77.67
2023-03-06T03:27:05.696Z,77.67
2023-03-06T03:29:47.995Z,77.68
2023-03-06T03:32:29.765Z,77.66
2023-03-06T03:35:13.848Z,77.58
2023-03-06T03:37:54.719Z,77.41
2023-03-06T03:40:35.818Z,77.51
2023-03-06T03:43:16.668Z,77.34
2023-03-06T03:46:00.028Z,77.33
2023-03-06T03:48:41.682Z,77.39
2023-03-06T03:51:29.702Z,77.48
2023-03-06T03:54:06.239Z,77.62
2023-03-06T03:56:53.879Z,77.66
2023-03-06T03:59:42.687Z,77.83
2023-03-06T04:02:30.896Z,78.10
2023-03-06T04:05:06.057Z,78.05
2023-03-06T04:07:53.692Z,78.09
2023-03-06T04:10:27.988Z,78.13
2023-03-06T04:13:15.671Z,78.10
2023-03-06T04:16:06.921Z,78.05
2023-03-06T04:18:42.292Z,77.94
2023-03-06T04:21:30.880Z,77.94
2023-03-06T04:24:13.712Z,77.62
2023-03-06T04:27:01.695Z,77.50
2023-03-06T04:29:36.242Z,77.48
2023-03-06T04:32:23.776Z,77.46
2023-03-06T04:34:59.794Z,77.51
2023-03-06T04:37:48.856Z,77.53
2023-03-06T04:40:29.478Z,77.43
2023-03-06T04:43:18.712Z,77.55
2023-03-06T04:45:53.142Z,77.58
2023-03-06T04:48:40.745Z,77.59
2023-03-06T04:51:16.135Z,77.79
2023-03-06T04:54:03.686Z,77.73
2023-03-06T04:56:44.704Z,77.98
2023-03-06T04:59:39.660Z,78.20
2023-03-06T05:02:27.927Z,78.29
2023-03-06T05:05:02.800Z,78.27
2023-03-06T05:07:50.658Z,78.07
2023-03-06T05:10:32.676Z,78.05
2023-03-06T05:13:27.652Z,78.00
2023-03-06T05:16:16.910Z,77.88
2023-03-06T05:18:58.866Z,78.00
2023-03-06T05:21:53.694Z,77.97
2023-03-06T05:24:41.669Z,77.98
2023-03-06T05:27:23.672Z,78.00
2023-03-06T05:30:19.685Z,77.93
2023-03-06T05:33:07.675Z,78.05
2023-03-06T05:35:56.047Z,78.03
2023-03-06T05:38:37.684Z,78.10
2023-03-06T05:41:26.899Z,78.09
2023-03-06T05:44:02.169Z,78.21
2023-03-06T05:46:49.671Z,78.50
2023-03-06T05:49:24.089Z,78.27
2023-03-06T05:52:11.681Z,78.13
2023-03-06T05:54:51.073Z,77.94
2023-03-06T05:57:38.689Z,77.87
2023-03-06T06:00:34.669Z,77.87
2023-03-06T06:03:22.674Z,77.57
2023-03-06T06:05:57.799Z,77.48
2023-03-06T06:08:45.673Z,77.34
2023-03-06T06:11:21.384Z,77.33
2023-03-06T06:14:09.690Z,77.09
2023-03-06T06:16:51.669Z,76.87
2023-03-06T06:19:46.670Z,76.85
2023-03-06T06:22:34.672Z,76.61
2023-03-06T06:25:09.793Z,76.46
2023-03-06T06:27:57.706Z,76.18
2023-03-06T06:30:32.905Z,75.94
2023-03-06T06:33:20.692Z,75.59
2023-03-06T06:36:02.682Z,75.24
2023-03-06T06:38:50.653Z,75.28
2023-03-06T06:41:46.616Z,75.00
2023-03-06T06:44:39.692Z,74.86
2023-03-06T06:47:24.566Z,74.59
2023-03-06T06:50:13.662Z,73.75
2023-03-06T06:52:48.886Z,74.03
2023-03-06T06:55:36.664Z,74.01
2023-03-06T06:58:18.642Z,73.60
2023-03-06T07:01:24.674Z,73.58
2023-03-06T07:04:12.679Z,73.34
2023-03-06T07:06:47.794Z,73.20
2023-03-06T07:09:37.656Z,72.96
2023-03-06T07:12:13.798Z,72.54
2023-03-06T07:15:01.668Z,72.13
2023-03-06T07:17:36.814Z,71.72
2023-03-06T07:20:25.667Z,71.28
2023-03-06T07:23:07.667Z,71.21
2023-03-06T07:25:55.678Z,70.72
2023-03-06T07:28:51.223Z,70.37
2023-03-06T07:31:46.637Z,70.04
2023-03-06T07:34:34.760Z,69.69
2023-03-06T07:37:16.864Z,69.33
2023-03-06T07:40:12.688Z,69.12
2023-03-06T07:43:16.916Z,68.90
2023-03-06T07:45:53.800Z,68.64
2023-03-06T07:48:42.659Z,68.12
2023-03-06T07:51:31.680Z,67.56
2023-03-06T07:54:26.662Z,67.22
2023-03-06T07:57:14.649Z,66.10
2023-03-06T07:59:55.705Z,65.50
2023-03-06T08:02:44.697Z,66.40
2023-03-06T08:05:21.865Z,66.86
2023-03-06T08:08:09.701Z,67.20
2023-03-06T08:10:51.709Z,67.29
2023-03-06T08:13:46.694Z,67.77
2023-03-06T08:16:35.727Z,67.71
2023-03-06T08:19:10.894Z,68.22
2023-03-06T08:21:58.670Z,68.00
2023-03-06T08:24:33.864Z,67.91
2023-03-06T08:27:21.694Z,67.82
2023-03-06T08:29:56.768Z,68.09
2023-03-06T08:32:44.684Z,67.60
2023-03-06T08:35:25.805Z,68.07
2023-03-06T08:38:06.665Z,67.84
2023-03-06T08:40:47.771Z,68.07
2023-03-06T08:43:28.694Z,67.97
2023-03-06T08:46:17.724Z,68.52
2023-03-06T08:48:52.448Z,68.94
2023-03-06T08:51:40.695Z,68.78
2023-03-06T08:54:15.243Z,68.35
2023-03-06T08:57:03.691Z,68.14
2023-03-06T08:59:44.779Z,68.09
2023-03-06T09:02:25.797Z,68.59
2023-03-06T09:05:08.090Z,67.59
2023-03-06T09:07:48.759Z,67.22
2023-03-06T09:10:31.679Z,66.13
2023-03-06T09:13:12.882Z,65.74
2023-03-06T09:15:54.674Z,65.20
2023-03-06T09:18:36.880Z,64.13
2023-03-06T09:21:18.632Z,63.36
2023-03-06T09:24:06.725Z,62.74
2023-03-06T09:26:50.515Z,62.18
2023-03-06T09:29:39.719Z,62.59
2023-03-06T09:32:14.248Z,60.66
2023-03-06T09:35:03.639Z,59.55
2023-03-06T09:37:44.663Z,60.66
2023-03-06T09:40:40.781Z,59.25
2023-03-06T09:43:27.638Z,59.03
2023-03-06T09:46:15.824Z,58.43
2023-03-06T09:49:39.653Z,58.02
2023-03-06T09:52:34.652Z,55.96
2023-03-06T09:55:13.542Z,55.35
2023-03-06T09:58:29.633Z,56.02
2023-03-06T10:01:26.761Z,55.48
2023-03-06T10:04:31.674Z,55.91
2023-03-06T10:07:30.750Z,55.35
2023-03-06T10:10:13.669Z,54.88
2023-03-06T10:13:07.768Z,53.33
2023-03-06T10:15:50.685Z,53.53
2023-03-06T10:18:31.650Z,53.84
2023-03-06T10:21:18.660Z,53.86
2023-03-06T10:24:27.645Z,53.98
2023-03-06T10:27:13.715Z,54.95
2023-03-06T10:30:15.636Z,53.51
2023-03-06T10:33:14.624Z,53.10
2023-03-06T10:35:48.886Z,52.92
2023-03-06T10:38:36.626Z,52.14
2023-03-06T10:41:17.840Z,52.26
2023-03-06T10:44:07.636Z,51.75
2023-03-06T10:46:52.904Z,52.64
2023-03-06T10:49:42.631Z,52.39
2023-03-06T10:52:31.974Z,52.62
2023-03-06T10:55:32.657Z,53.95
2023-03-06T10:58:51.634Z,52.53
2023-03-06T11:01:39.740Z,52.06
2023-03-06T11:04:38.211Z,52.04
2023-03-06T11:07:34.648Z,52.60
2023-03-06T11:10:24.757Z,52.18
2023-03-06T11:13:28.658Z,51.90
2023-03-06T11:16:08.881Z,52.77
2023-03-06T11:19:04.704Z,52.07
2023-03-06T11:21:41.940Z,51.54
2023-03-06T11:24:29.627Z,50.65
2023-03-06T11:27:06.773Z,50.52
2023-03-06T11:29:58.630Z,50.01
2023-03-06T11:32:40.851Z,49.70
2023-03-06T11:35:34.681Z,50.77
2023-03-06T11:38:25.749Z,49.36
2023-03-06T11:41:09.951Z,47.91
2023-03-06T11:44:26.089Z,47.10
2023-03-06T11:47:35.926Z,46.56
2023-03-06T11:50:49.612Z,46.55
2023-03-06T11:53:38.000Z,45.59
2023-03-06T11:56:38.012Z,44.67
2023-03-06T11:59:34.813Z,44.31
2023-03-06T12:02:40.616Z,44.75
2023-03-06T12:05:41.834Z,45.05
2023-03-06T12:08:43.844Z,43.85
2023-03-06T12:11:54.794Z,44.61
2023-03-06T12:15:12.627Z,43.40
2023-03-06T12:18:21.668Z,42.34
2023-03-06T12:21:31.649Z,42.40
2023-03-06T12:24:32.625Z,42.32
2023-03-06T12:27:06.969Z,42.24
2023-03-06T12:30:07.620Z,42.54
2023-03-06T12:32:51.692Z,42.27
2023-03-06T12:35:50.987Z,43.01
2023-03-06T12:39:00.696Z,42.21
2023-03-06T12:41:57.606Z,41.01
2023-03-06T12:45:13.638Z,41.37
2023-03-06T12:47:48.645Z,42.17
2023-03-06T12:50:50.624Z,41.21
2023-03-06T12:53:30.173Z,40.88
2023-03-06T12:56:18.620Z,40.51
2023-03-06T12:59:09.647Z,41.29
2023-03-06T13:02:30.678Z,41.34
2023-03-06T13:05:38.647Z,41.70
2023-03-06T13:08:35.637Z,41.92
2023-03-06T13:11:33.812Z,42.26
2023-03-06T13:14:35.836Z,42.06
2023-03-06T13:17:29.822Z,42.42
2023-03-06T13:20:20.631Z,42.96
2023-03-06T13:22:55.802Z,44.31
2023-03-06T13:25:54.831Z,44.79
2023-03-06T13:28:50.734Z,44.71
2023-03-06T13:31:42.670Z,46.04
2023-03-06T13:34:37.820Z,45.85
2023-03-06T13:37:26.667Z,45.50
2023-03-06T13:40:20.736Z,45.94
2023-03-06T13:43:11.807Z,45.89
2023-03-06T13:45:53.907Z,45.87
2023-03-06T13:48:44.838Z,46.47
2023-03-06T13:51:32.751Z,47.53
2023-03-06T13:54:35.623Z,46.92
2023-03-06T13:57:50.760Z,47.48
2023-03-06T14:01:04.647Z,47.62
2023-03-06T14:04:11.752Z,46.83
2023-03-06T14:06:53.645Z,45.96
2023-03-06T14:09:55.618Z,46.23
2023-03-06T14:13:04.623Z,45.95
2023-03-06T14:15:54.711Z,46.60
2023-03-06T14:18:49.613Z,46.75
2023-03-06T14:21:54.718Z,46.97
2023-03-06T14:24:48.619Z,48.33
2023-03-06T14:27:33.604Z,48.32
2023-03-06T14:30:33.606Z,49.85
2023-03-06T14:33:40.600Z,49.24
2023-03-06T14:36:31.687Z,50.95
2023-03-06T14:39:16.626Z,53.73
2023-03-06T14:42:21.620Z,57.34
2023-03-06T14:45:12.638Z,58.48
2023-03-06T14:47:47.750Z,58.04
2023-03-06T14:50:41.145Z,57.64
2023-03-06T14:53:44.885Z,58.74
2023-03-06T14:56:33.622Z,58.13
2023-03-06T14:59:10.726Z,58.47
2023-03-06T15:02:03.791Z,59.33
2023-03-06T15:04:48.730Z,60.06
2023-03-06T15:07:37.624Z,60.69
2023-03-06T15:10:12.732Z,61.41
2023-03-06T15:13:01.623Z,61.83
2023-03-06T15:15:45.631Z,62.13
2023-03-06T15:18:51.642Z,62.35
2023-03-06T15:21:44.696Z,62.33
2023-03-06T15:24:48.709Z,62.70
2023-03-06T15:27:43.711Z,62.95
2023-03-06T15:30:39.637Z,63.22
2023-03-06T15:33:23.990Z,64.06
2023-03-06T15:36:13.593Z,64.47
2023-03-06T15:38:50.769Z,64.67
2023-03-06T15:41:43.607Z,65.22
2023-03-06T15:44:18.761Z,65.08
2023-03-06T15:47:09.664Z,64.64
2023-03-06T15:49:45.751Z,64.67
2023-03-06T15:52:33.584Z,64.58
2023-03-06T15:55:16.618Z,64.43
2023-03-06T15:58:06.578Z,64.65
2023-03-06T16:00:42.759Z,64.62
2023-03-06T16:03:30.600Z,65.59
2023-03-06T16:06:05.741Z,66.29
2023-03-06T16:08:53.614Z,66.76
2023-03-06T16:11:43.715Z,67.01
2023-03-06T16:14:31.594Z,67.29
2023-03-06T16:17:12.873Z,67.25
2023-03-06T16:19:54.598Z,67.22
2023-03-06T16:22:35.717Z,67.66
2023-03-06T16:25:16.573Z,67.89
2023-03-06T16:28:01.906Z,68.38
2023-03-06T16:30:44.642Z,68.60
2023-03-06T16:33:27.728Z,68.79
2023-03-06T16:36:09.757Z,68.98
2023-03-06T16:38:50.838Z,69.01
2023-03-06T16:41:32.628Z,69.28
2023-03-06T16:44:21.723Z,69.82
2023-03-06T16:47:02.747Z,70.25
2023-03-06T16:49:43.734Z,70.73
2023-03-06T16:52:24.618Z,71.15
2023-03-06T16:55:05.704Z,71.81
2023-03-06T16:57:46.590Z,72.08
2023-03-06T17:00:39.592Z,72.17
2023-03-06T17:03:34.571Z,72.20
2023-03-06T17:06:24.595Z,72.03
2023-03-06T17:09:00.322Z,72.07
2023-03-06T17:11:53.622Z,72.15
2023-03-06T17:14:28.831Z,72.03
2023-03-06T17:17:16.578Z,71.92
2023-03-06T17:20:02.599Z,71.94
2023-03-06T17:22:57.576Z,71.94
2023-03-06T17:25:46.239Z,71.89
2023-03-06T17:28:21.831Z,71.91
2023-03-06T17:31:12.732Z,71.81
2023-03-06T17:33:51.687Z,71.84
2023-03-06T17:36:39.574Z,71.91
2023-03-06T17:39:21.575Z,72.06
2023-03-06T17:42:16.564Z,72.09
2023-03-06T17:45:04.588Z,71.97
2023-03-06T17:47:48.965Z,71.12
2023-03-06T17:50:43.629Z,69.48
2023-03-06T17:53:31.594Z,68.68
2023-03-06T17:56:06.846Z,68.41
2023-03-06T17:58:54.572Z,68.14
2023-03-06T18:01:37.856Z,68.20
2023-03-06T18:04:25.578Z,68.53
2023-03-06T18:07:00.730Z,68.77
2023-03-06T18:10:00.312Z,68.67
2023-03-06T18:12:35.734Z,68.38
2023-03-06T18:15:23.587Z,68.02
2023-03-06T18:18:04.731Z,67.57
2023-03-06T18:20:49.572Z,67.58
2023-03-06T18:23:37.866Z,67.41
2023-03-06T18:26:16.854Z,67.39
2023-03-06T18:29:12.854Z,67.43
2023-03-06T18:32:16.386Z,67.54
2023-03-06T18:35:11.560Z,67.81
2023-03-06T18:38:08.990Z,67.99
2023-03-06T18:41:15.794Z,68.35
2023-03-06T18:44:23.523Z,68.45
2023-03-06T18:47:06.945Z,68.46
2023-03-06T18:50:00.674Z,68.41
2023-03-06T18:53:03.580Z,68.51
2023-03-06T18:55:49.197Z,68.55
2023-03-06T18:58:50.655Z,68.57
2023-03-06T19:01:27.079Z,68.65
2023-03-06T19:04:17.813Z,68.63
2023-03-06T19:06:54.835Z,68.67
2023-03-06T19:09:45.028Z,68.57
2023-03-06T19:12:21.311Z,68.61
2023-03-06T19:19:00.976Z,68.35
2023-03-06T19:21:51.845Z,68.43
2023-03-06T19:24:34.609Z,68.52
2023-03-06T19:27:38.194Z,68.64
2023-03-06T19:30:22.599Z,68.70
2023-03-06T19:33:03.701Z,68.99
2023-03-06T19:35:44.692Z,69.22
2023-03-06T19:38:25.702Z,69.32
2023-03-06T19:41:08.566Z,69.47
2023-03-06T19:43:52.289Z,69.54
2023-03-06T19:46:33.564Z,69.68
2023-03-06T19:49:16.162Z,69.87
2023-03-06T19:51:59.855Z,70.10
2023-03-06T19:54:40.908Z,70.13
2023-03-06T19:57:22.664Z,70.16
2023-03-06T20:00:18.573Z,70.28
2023-03-06T20:03:06.567Z,70.30
2023-03-06T20:05:41.884Z,70.37
2023-03-06T20:08:31.602Z,70.38
2023-03-06T20:11:13.564Z,70.61
2023-03-06T20:14:04.961Z,70.81
2023-03-06T20:16:50.109Z,71.48
2023-03-06T20:19:44.921Z,72.37
2023-03-06T20:22:39.696Z,72.80
2023-03-06T20:25:28.677Z,73.00
2023-03-06T20:28:11.564Z,73.24
2023-03-06T20:31:06.726Z,73.31
2023-03-06T20:33:56.587Z,73.33
2023-03-06T20:36:46.545Z,73.52
2023-03-06T20:40:18.255Z,74.16
2023-03-06T20:43:09.697Z,74.85
2023-03-06T20:46:11.519Z,75.46
2023-03-06T20:48:56.700Z,75.89
2023-03-06T20:51:40.537Z,76.27
2023-03-06T20:54:29.548Z,76.22
2023-03-06T20:57:10.770Z,76.82
2023-03-06T21:00:07.603Z,76.79
2023-03-06T21:02:55.659Z,76.85
2023-03-06T21:05:30.906Z,76.69
2023-03-06T21:08:18.617Z,76.77
2023-03-06T21:10:53.687Z,76.73
2023-03-06T21:13:41.601Z,76.98
2023-03-06T21:16:19.766Z,77.02
2023-03-06T21:19:32.549Z,77.34
2023-03-06T21:22:14.738Z,77.35
2023-03-06T21:24:55.556Z,77.45
2023-03-06T21:27:44.565Z,77.58
2023-03-06T21:30:19.120Z,78.09
2023-03-06T21:33:07.564Z,78.24
2023-03-06T21:35:50.733Z,78.42
2023-03-06T21:38:31.677Z,78.89
2023-03-06T21:41:21.548Z,79.15
2023-03-06T21:44:12.744Z,79.36
2023-03-06T21:46:47.958Z,79.60
2023-03-06T21:49:36.534Z,79.95
2023-03-06T21:52:11.129Z,80.14
2023-03-06T21:55:02.524Z,80.15
2023-03-06T21:57:36.976Z,80.19
2023-03-06T22:00:26.552Z,80.28
2023-03-06T22:03:03.581Z,80.35
2023-03-06T22:05:51.622Z,80.47
2023-03-06T22:08:25.960Z,80.81
2023-03-06T22:11:14.554Z,80.92
2023-03-06T22:13:49.711Z,80.89
2023-03-06T22:16:37.548Z,80.89
2023-03-06T22:19:12.272Z,80.90
2023-03-06T22:22:00.583Z,81.07
2023-03-06T22:24:36.175Z,81.04
2023-03-06T22:27:24.744Z,80.91
2023-03-06T22:30:06.518Z,80.73
2023-03-06T22:32:48.804Z,80.95
2023-03-06T22:35:32.151Z,81.15
2023-03-06T22:38:13.682Z,81.34
2023-03-06T22:40:54.719Z,81.50
2023-03-06T22:43:43.746Z,81.82
2023-03-06T22:46:19.277Z,81.85
2023-03-06T22:49:10.512Z,81.74
2023-03-06T22:51:45.054Z,81.58
2023-03-06T22:54:32.512Z,81.55
2023-03-06T22:57:06.914Z,81.72
2023-03-06T22:59:54.525Z,81.85
2023-03-06T23:02:50.527Z,81.89
2023-03-06T23:05:38.528Z,81.83
2023-03-06T23:08:13.670Z,81.62
2023-03-06T23:11:01.540Z,81.75
2023-03-06T23:13:37.263Z,81.68
2023-03-06T23:16:25.535Z,81.65
2023-03-06T23:19:06.674Z,81.86
2023-03-06T23:21:47.524Z,82.28
2023-03-06T23:24:28.916Z,82.34
2023-03-06T23:27:10.517Z,82.48
2023-03-06T23:30:01.532Z,82.57
2023-03-06T23:32:35.957Z,82.42
2023-03-06T23:35:23.531Z,82.52
2023-03-06T23:38:04.543Z,82.69
2023-03-06T23:40:52.508Z,83.09
2023-03-06T23:43:28.437Z,82.87
2023-03-06T23:46:17.503Z,82.63
2023-03-06T23:48:52.555Z,82.71
2023-03-06T23:51:40.514Z,82.55
2023-03-06T23:54:21.504Z,82.66
2023-03-06T23:57:02.669Z,82.74
2023-03-06T23:59:43.517Z,82.84
